createdAt,value
2022-11-16T00:01:31.399Z,9.20
2022-11-16T00:04:00.602Z,9.10
2022-11-16T00:06:28.548Z,9.00
2022-11-16T00:09:18.249Z,8.90
2022-11-16T00:11:45.463Z,9.00
2022-11-16T00:14:12.033Z,9.00
2022-11-16T00:16:38.567Z,8.80
2022-11-16T00:19:06.638Z,8.90
2022-11-16T00:21:33.927Z,8.90
2022-11-16T00:24:01.121Z,8.90
2022-11-16T00:26:27.599Z,8.90
2022-11-16T00:28:54.550Z,8.90
2022-11-16T00:31:22.501Z,8.80
2022-11-16T00:33:49.793Z,8.80
2022-11-16T00:36:17.077Z,8.90
2022-11-16T00:38:44.151Z,8.80
2022-11-16T00:41:10.589Z,8.80
2022-11-16T00:43:37.645Z,8.80
2022-11-16T00:46:04.624Z,8.90
2022-11-16T00:48:31.735Z,8.90
2022-11-16T00:50:58.464Z,8.80
2022-11-16T00:53:24.971Z,8.90
2022-11-16T00:55:51.436Z,8.90
2022-11-16T00:58:17.945Z,8.90
2022-11-16T01:00:44.491Z,8.90
2022-11-16T01:03:11.162Z,8.90
2022-11-16T01:05:38.161Z,9.00
2022-11-16T01:08:05.593Z,9.00
2022-11-16T01:10:32.225Z,9.00
2022-11-16T01:12:58.694Z,9.00
2022-11-16T01:15:27.275Z,8.90
2022-11-16T01:17:55.699Z,8.90
2022-11-16T01:20:26.690Z,8.80
2022-11-16T01:22:53.474Z,8.70
2022-11-16T01:25:20.370Z,8.60
2022-11-16T01:27:47.019Z,8.60
2022-11-16T01:30:15.223Z,8.60
2022-11-16T01:32:41.919Z,8.50
2022-11-16T01:35:14.116Z,8.50
2022-11-16T01:37:40.634Z,8.50
2022-11-16T01:40:08.399Z,8.50
2022-11-16T01:42:34.889Z,8.50
2022-11-16T01:45:33.445Z,8.50
2022-11-16T01:48:00.320Z,8.50
2022-11-16T01:50:27.106Z,8.40
2022-11-16T01:53:00.091Z,8.40
2022-11-16T01:55:29.676Z,8.50
2022-11-16T01:57:56.736Z,8.50
2022-11-16T02:00:23.420Z,8.50
2022-11-16T02:02:50.660Z,8.60
2022-11-16T02:05:25.850Z,8.60
2022-11-16T02:10:53.112Z,8.60
2022-11-16T02:17:31.569Z,8.60
2022-11-16T02:22:56.809Z,8.60
2022-11-16T02:28:23.594Z,8.50
2022-11-16T02:30:56.229Z,8.40
2022-11-16T02:33:34.758Z,8.50
2022-11-16T02:36:06.080Z,8.50
2022-11-16T02:38:41.277Z,8.50
2022-11-16T02:41:31.573Z,8.50
2022-11-16T02:44:11.465Z,8.50
2022-11-16T02:46:43.970Z,8.60
2022-11-16T02:49:18.321Z,8.50
2022-11-16T02:51:49.119Z,8.50
2022-11-16T02:54:20.118Z,8.30
2022-11-16T02:59:17.932Z,8.10
2022-11-16T03:01:58.674Z,8.10
2022-11-16T03:04:42.496Z,8.10
2022-11-16T03:07:14.316Z,8.00
2022-11-16T03:09:44.818Z,8.10
2022-11-16T03:12:17.836Z,8.20
2022-11-16T03:14:51.583Z,8.20
2022-11-16T03:17:28.557Z,8.20
2022-11-16T03:20:17.735Z,8.20
2022-11-16T03:22:53.606Z,8.10
2022-11-16T03:25:27.070Z,8.20
2022-11-16T03:28:06.262Z,8.20
2022-11-16T03:30:41.724Z,8.30
2022-11-16T03:35:06.004Z,8.30
2022-11-16T03:37:34.528Z,8.30
2022-11-16T03:40:03.975Z,8.40
2022-11-16T03:42:32.486Z,8.40
2022-11-16T03:44:59.994Z,8.40
2022-11-16T03:47:26.522Z,8.50
2022-11-16T03:49:53.009Z,8.40
2022-11-16T03:52:19.654Z,8.40
2022-11-16T03:54:46.124Z,8.30
2022-11-16T03:57:16.721Z,8.30
2022-11-16T03:59:43.436Z,8.20
2022-11-16T04:02:11.051Z,8.20
2022-11-16T04:04:56.273Z,8.30
2022-11-16T04:07:41.178Z,8.30
2022-11-16T04:10:28.051Z,8.30
2022-11-16T04:13:13.416Z,8.10
2022-11-16T04:15:58.315Z,8.10
2022-11-16T04:18:43.135Z,8.20
2022-11-16T04:21:43.168Z,8.10
2022-11-16T04:24:16.311Z,8.20
2022-11-16T04:27:07.601Z,8.20
2022-11-16T04:29:35.524Z,8.20
2022-11-16T04:32:20.532Z,8.20
2022-11-16T04:35:05.487Z,8.10
2022-11-16T04:37:51.630Z,8.10
2022-11-16T04:40:27.161Z,8.00
2022-11-16T04:42:59.484Z,8.00
2022-11-16T04:45:45.461Z,8.00
2022-11-16T04:48:14.053Z,8.00
2022-11-16T04:50:41.147Z,8.20
2022-11-16T04:53:08.266Z,8.10
2022-11-16T04:55:35.274Z,8.00
2022-11-16T04:58:02.122Z,8.00
2022-11-16T05:00:29.553Z,8.00
2022-11-16T05:03:00.991Z,8.00
2022-11-16T05:05:28.261Z,8.00
2022-11-16T05:07:54.971Z,7.90
2022-11-16T05:10:21.456Z,7.90
2022-11-16T05:12:47.938Z,7.80
2022-11-16T05:15:16.789Z,7.70
2022-11-16T05:17:43.280Z,7.70
2022-11-16T05:20:28.855Z,7.70
2022-11-16T05:22:57.301Z,7.80
2022-11-16T05:25:24.519Z,7.80
2022-11-16T05:27:50.985Z,7.70
2022-11-16T05:30:18.218Z,7.80
2022-11-16T05:32:44.700Z,7.80
2022-11-16T05:35:11.177Z,7.70
2022-11-16T05:37:37.656Z,7.70
2022-11-16T05:40:05.474Z,7.70
2022-11-16T05:42:31.967Z,7.70
2022-11-16T05:44:58.445Z,7.80
2022-11-16T05:47:24.958Z,7.80
2022-11-16T05:49:51.454Z,7.80
2022-11-16T05:52:17.961Z,7.60
2022-11-16T05:54:44.508Z,7.60
2022-11-16T05:57:10.978Z,7.60
2022-11-16T05:59:37.462Z,7.50
2022-11-16T06:02:04.090Z,7.40
2022-11-16T06:04:30.582Z,7.50
2022-11-16T06:06:57.109Z,7.40
2022-11-16T06:09:23.657Z,7.40
2022-11-16T06:11:50.135Z,7.50
2022-11-16T06:14:16.656Z,7.50
2022-11-16T06:16:43.133Z,7.50
2022-11-16T06:19:09.641Z,7.60
2022-11-16T06:21:36.117Z,7.60
2022-11-16T06:24:08.052Z,7.60
2022-11-16T06:26:34.945Z,7.60
2022-11-16T06:29:01.465Z,7.60
2022-11-16T06:31:27.939Z,7.70
2022-11-16T06:33:54.428Z,7.70
2022-11-16T06:36:20.915Z,7.70
2022-11-16T06:38:47.395Z,7.60
2022-11-16T06:41:13.857Z,7.70
2022-11-16T06:43:40.352Z,7.50
2022-11-16T06:46:06.846Z,7.50
2022-11-16T06:48:33.730Z,7.50
2022-11-16T06:51:00.812Z,7.40
2022-11-16T06:53:29.381Z,7.40
2022-11-16T06:56:04.857Z,7.40
2022-11-16T06:58:33.093Z,7.50
2022-11-16T07:01:08.259Z,7.50
2022-11-16T07:03:34.850Z,7.50
2022-11-16T07:06:10.527Z,7.50
2022-11-16T07:08:37.693Z,7.60
2022-11-16T07:11:06.258Z,7.60
2022-11-16T07:13:34.618Z,7.60
2022-11-16T07:16:10.047Z,7.70
2022-11-16T07:18:41.310Z,7.60
2022-11-16T07:21:16.178Z,7.80
2022-11-16T07:23:43.399Z,7.80
2022-11-16T07:26:10.853Z,7.80
2022-11-16T07:28:39.143Z,7.80
2022-11-16T07:31:13.600Z,7.80
2022-11-16T07:33:40.668Z,7.80
2022-11-16T07:36:13.971Z,7.70
2022-11-16T07:38:40.995Z,7.70
2022-11-16T07:41:19.649Z,7.70
2022-11-16T07:43:52.561Z,7.70
2022-11-16T07:49:19.446Z,7.80
2022-11-16T07:51:46.126Z,7.80
2022-11-16T07:54:14.033Z,7.80
2022-11-16T07:56:41.334Z,7.90
2022-11-16T07:59:08.329Z,7.90
2022-11-16T08:01:37.876Z,7.90
2022-11-16T08:04:04.409Z,8.00
2022-11-16T08:06:31.547Z,8.00
2022-11-16T08:08:59.311Z,8.10
2022-11-16T08:11:26.412Z,8.20
2022-11-16T08:13:53.199Z,8.10
2022-11-16T08:16:22.356Z,8.20
2022-11-16T08:18:49.097Z,8.10
2022-11-16T08:21:17.859Z,8.20
2022-11-16T08:28:58.004Z,8.40
2022-11-16T08:31:28.262Z,8.40
2022-11-16T08:33:55.779Z,8.50
2022-11-16T08:36:22.276Z,8.40
2022-11-16T08:38:51.051Z,8.40
2022-11-16T08:41:18.844Z,8.30
2022-11-16T08:43:49.846Z,8.40
2022-11-16T08:46:17.016Z,8.40
2022-11-16T08:48:44.051Z,8.50
2022-11-16T08:51:18.471Z,8.40
2022-11-16T08:53:47.293Z,8.60
2022-11-16T08:56:14.038Z,8.70
2022-11-16T08:58:43.013Z,8.70
2022-11-16T09:01:16.274Z,8.80
2022-11-16T09:03:44.121Z,8.80
2022-11-16T09:06:11.975Z,8.70
2022-11-16T09:08:41.607Z,8.70
2022-11-16T09:11:15.341Z,8.70
2022-11-16T09:13:43.462Z,8.70
2022-11-16T09:16:10.570Z,8.60
2022-11-16T09:18:37.801Z,8.60
2022-11-16T09:21:04.534Z,8.70
2022-11-16T09:23:31.086Z,8.80
2022-11-16T09:26:03.098Z,8.90
2022-11-16T09:28:29.891Z,8.90
2022-11-16T09:31:03.586Z,9.00
2022-11-16T09:33:32.768Z,9.10
2022-11-16T09:36:08.658Z,9.20
2022-11-16T09:39:13.262Z,9.30
2022-11-16T09:47:44.803Z,9.30
2022-11-16T09:51:02.179Z,9.50
2022-11-16T09:53:46.674Z,9.50
2022-11-16T09:56:31.017Z,9.70
2022-11-16T09:59:24.788Z,9.80
2022-11-16T10:02:35.919Z,9.90
2022-11-16T10:06:04.780Z,10.10
2022-11-16T10:08:55.794Z,10.20
2022-11-16T10:12:06.162Z,10.40
2022-11-16T10:15:03.995Z,10.50
2022-11-16T10:19:27.011Z,10.70
2022-11-16T10:25:24.343Z,10.60
2022-11-16T11:06:31.267Z,10.70
2022-11-16T11:09:26.562Z,10.50
2022-11-16T11:12:37.207Z,10.40
2022-11-16T11:15:28.327Z,10.40
2022-11-16T11:18:29.022Z,10.30
2022-11-16T11:23:55.397Z,10.40
2022-11-16T11:26:40.952Z,10.50
2022-11-16T11:30:18.857Z,10.50
2022-11-16T11:32:46.038Z,10.50
2022-11-16T11:35:30.592Z,10.50
2022-11-16T11:38:08.019Z,10.40
2022-11-16T11:40:35.540Z,10.40
2022-11-16T11:43:05.681Z,10.40
2022-11-16T11:46:40.191Z,10.20
2022-11-16T11:49:41.462Z,10.20
2022-11-16T11:52:26.642Z,10.20
2022-11-16T11:54:55.491Z,10.30
2022-11-16T11:57:24.248Z,10.40
2022-11-16T11:59:54.327Z,10.50
2022-11-16T12:04:46.003Z,10.50
2022-11-16T12:10:13.472Z,10.40
2022-11-16T12:13:47.993Z,10.70
2022-11-16T12:18:21.755Z,10.80
2022-11-16T12:24:03.794Z,10.70
2022-11-16T12:29:30.439Z,10.70
2022-11-16T12:35:07.549Z,10.60
2022-11-16T12:38:49.219Z,10.70
2022-11-16T12:41:57.399Z,10.70
2022-11-16T12:46:59.263Z,10.60
2022-11-16T12:50:34.745Z,10.70
2022-11-16T12:59:02.206Z,10.60
2022-11-16T13:01:46.121Z,10.70
2022-11-16T13:04:25.116Z,10.80
2022-11-16T13:07:13.453Z,10.80
2022-11-16T13:10:42.217Z,10.80
2022-11-16T13:13:37.783Z,10.70
2022-11-16T13:16:07.322Z,10.70
2022-11-16T13:18:40.363Z,10.90
2022-11-16T13:22:17.245Z,11.00
2022-11-16T13:25:12.047Z,11.10
2022-11-16T13:27:54.029Z,11.30
2022-11-16T13:30:35.643Z,11.40
2022-11-16T13:33:50.718Z,11.50
2022-11-16T13:38:52.128Z,11.60
2022-11-16T13:41:36.124Z,11.50
2022-11-16T13:45:59.932Z,11.40
2022-11-16T13:48:37.669Z,11.40
2022-11-16T13:51:16.557Z,11.20
2022-11-16T13:56:50.636Z,11.10
2022-11-16T13:59:27.496Z,11.10
2022-11-16T14:01:58.622Z,11.00
2022-11-16T14:05:01.373Z,11.10
2022-11-16T14:07:34.195Z,11.10
2022-11-16T14:10:04.852Z,11.00
2022-11-16T14:13:36.079Z,11.10
2022-11-16T14:18:37.462Z,11.00
2022-11-16T14:23:48.918Z,11.00
2022-11-16T14:29:42.648Z,10.90
2022-11-16T14:32:29.464Z,10.80
2022-11-16T14:34:59.858Z,10.60
2022-11-16T14:37:37.994Z,10.60
2022-11-16T14:40:22.425Z,10.50
2022-11-16T14:46:08.710Z,10.40
2022-11-16T14:48:44.333Z,10.30
2022-11-16T14:51:19.794Z,10.20
2022-11-16T14:54:15.172Z,10.10
2022-11-16T14:57:04.008Z,10.10
2022-11-16T14:59:31.402Z,10.30
2022-11-16T15:02:13.817Z,10.30
2022-11-16T15:04:40.359Z,10.30
2022-11-16T15:07:07.653Z,10.30
2022-11-16T15:09:51.709Z,10.10
2022-11-16T15:12:42.133Z,10.00
2022-11-16T15:15:37.825Z,10.10
2022-11-16T15:18:12.161Z,10.00
2022-11-16T15:20:50.149Z,9.90
2022-11-16T15:23:19.502Z,9.70
2022-11-16T15:25:58.617Z,9.70
2022-11-16T15:28:32.431Z,9.70
2022-11-16T15:31:05.435Z,9.70
2022-11-16T15:33:40.702Z,9.70
2022-11-16T15:37:11.690Z,9.60
2022-11-16T15:39:39.166Z,9.60
2022-11-16T15:42:07.373Z,9.60
2022-11-16T15:44:34.069Z,9.60
2022-11-16T15:47:03.182Z,9.50
2022-11-16T15:49:39.383Z,9.50
2022-11-16T15:52:06.375Z,9.50
2022-11-16T15:55:02.923Z,9.50
2022-11-16T15:57:29.564Z,9.50
2022-11-16T15:59:57.059Z,9.50
2022-11-16T16:02:30.879Z,9.40
2022-11-16T16:04:57.501Z,9.30
2022-11-16T16:07:42.377Z,9.40
2022-11-16T16:12:50.803Z,9.40
2022-11-16T16:15:32.948Z,9.40
2022-11-16T16:18:01.074Z,9.40
2022-11-16T16:20:31.317Z,9.30
2022-11-16T16:23:12.176Z,9.30
2022-11-16T16:25:38.662Z,9.30
2022-11-16T16:28:05.476Z,9.30
2022-11-16T16:30:33.949Z,9.20
2022-11-16T16:33:01.032Z,9.20
2022-11-16T16:35:27.534Z,9.30
2022-11-16T16:38:42.463Z,9.20
2022-11-16T16:41:23.778Z,9.20
2022-11-16T16:43:50.986Z,9.20
2022-11-16T16:46:17.450Z,9.20
2022-11-16T16:48:44.855Z,9.20
2022-11-16T16:51:12.440Z,9.30
2022-11-16T16:53:39.167Z,9.30
2022-11-16T16:56:13.907Z,9.30
2022-11-16T16:58:40.524Z,9.20
2022-11-16T17:01:07.142Z,9.20
2022-11-16T17:03:34.065Z,9.10
2022-11-16T17:06:01.275Z,9.00
2022-11-16T17:08:33.050Z,9.00
2022-11-16T17:10:59.522Z,9.10
2022-11-16T17:13:25.987Z,9.10
2022-11-16T17:15:52.488Z,9.00
2022-11-16T17:18:18.948Z,9.00
2022-11-16T17:20:45.692Z,9.00
2022-11-16T17:23:12.260Z,9.00
2022-11-16T17:25:38.787Z,9.00
2022-11-16T17:28:05.265Z,9.10
2022-11-16T17:30:31.744Z,9.00
2022-11-16T17:32:58.197Z,9.00
2022-11-16T17:35:24.667Z,9.00
2022-11-16T17:37:51.519Z,9.00
2022-11-16T17:40:18.056Z,9.00
2022-11-16T17:42:44.522Z,9.00
2022-11-16T17:45:11.287Z,9.00
2022-11-16T17:47:38.386Z,8.90
2022-11-16T17:50:05.643Z,8.90
2022-11-16T17:52:32.128Z,8.90
2022-11-16T17:54:58.602Z,8.90
2022-11-16T17:57:25.063Z,8.90
2022-11-16T17:59:51.532Z,8.90
2022-11-16T18:02:17.993Z,8.90
2022-11-16T18:04:49.629Z,8.90
2022-11-16T18:07:17.337Z,9.00
2022-11-16T18:09:43.851Z,8.90
2022-11-16T18:12:10.373Z,8.90
2022-11-16T18:14:36.821Z,8.80
2022-11-16T18:17:03.298Z,8.70
2022-11-16T18:19:29.760Z,8.60
2022-11-16T18:21:56.219Z,8.70
2022-11-16T18:24:22.689Z,8.60
2022-11-16T18:26:49.139Z,8.50
2022-11-16T18:29:17.895Z,8.60
2022-11-16T18:31:44.348Z,8.60
2022-11-16T18:34:14.660Z,8.60
2022-11-16T18:36:41.165Z,8.60
2022-11-16T18:39:07.634Z,8.50
2022-11-16T18:41:34.161Z,8.50
2022-11-16T18:44:01.933Z,8.50
2022-11-16T18:46:31.702Z,8.30
2022-11-16T18:48:58.814Z,8.30
2022-11-16T18:51:27.482Z,8.40
2022-11-16T18:53:54.609Z,8.50
2022-11-16T18:56:22.005Z,8.50
2022-11-16T18:58:51.233Z,8.50
2022-11-16T19:01:22.954Z,8.50
2022-11-16T19:03:51.385Z,8.40
2022-11-16T19:06:18.342Z,8.50
2022-11-16T19:08:50.407Z,8.40
2022-11-16T19:11:21.101Z,8.40
2022-11-16T19:14:00.537Z,8.50
2022-11-16T19:16:27.236Z,8.50
2022-11-16T19:18:53.712Z,8.50
2022-11-16T19:21:21.158Z,8.50
2022-11-16T19:23:57.305Z,8.40
2022-11-16T19:26:26.741Z,8.40
2022-11-16T19:28:54.169Z,8.30
2022-11-16T19:31:31.424Z,8.30
2022-11-16T19:34:05.235Z,8.30
2022-11-16T19:36:34.237Z,8.40
2022-11-16T19:39:00.999Z,8.50
2022-11-16T19:41:28.025Z,8.50
2022-11-16T19:43:58.898Z,8.60
2022-11-16T19:46:35.805Z,8.60
2022-11-16T19:49:02.661Z,8.50
2022-11-16T19:51:32.392Z,8.50
2022-11-16T19:54:01.047Z,8.40
2022-11-16T19:56:28.210Z,8.40
2022-11-16T19:58:54.701Z,8.40
2022-11-16T20:01:28.241Z,8.40
2022-11-16T20:03:58.055Z,8.40
2022-11-16T20:06:31.004Z,8.40
2022-11-16T20:09:03.130Z,8.40
2022-11-16T20:11:33.310Z,8.40
2022-11-16T20:14:00.983Z,8.50
2022-11-16T20:16:38.433Z,8.30
2022-11-16T20:19:07.366Z,8.30
2022-11-16T20:21:37.711Z,8.20
2022-11-16T20:24:07.244Z,8.30
2022-11-16T20:26:35.940Z,8.30
2022-11-16T20:29:03.174Z,8.30
2022-11-16T20:31:32.325Z,8.30
2022-11-16T20:34:05.040Z,8.30
2022-11-16T20:36:33.303Z,8.30
2022-11-16T20:39:00.626Z,8.30
2022-11-16T20:41:30.266Z,8.10
2022-11-16T20:43:59.367Z,8.10
2022-11-16T20:46:29.324Z,8.10
2022-11-16T20:48:58.535Z,8.10
2022-11-16T20:51:25.453Z,8.00
2022-11-16T20:53:51.951Z,7.90
2022-11-16T20:56:20.385Z,7.90
2022-11-16T20:58:48.544Z,7.80
2022-11-16T21:01:27.524Z,7.70
2022-11-16T21:03:59.653Z,7.70
2022-11-16T21:06:26.570Z,7.70
2022-11-16T21:08:53.774Z,7.70
2022-11-16T21:11:24.375Z,7.60
2022-11-16T21:14:09.973Z,7.50
2022-11-16T21:16:36.795Z,7.40
2022-11-16T21:19:04.728Z,7.20
2022-11-16T21:21:31.849Z,7.10
2022-11-16T21:23:58.315Z,7.00
2022-11-16T21:26:31.313Z,6.90
2022-11-16T21:28:59.687Z,7.00
2022-11-16T21:31:32.196Z,6.90
2022-11-16T21:34:02.542Z,7.00
2022-11-16T21:36:31.566Z,7.00
2022-11-16T21:38:58.399Z,7.00
2022-11-16T21:41:25.646Z,7.10
2022-11-16T21:43:52.398Z,7.00
2022-11-16T21:46:25.495Z,7.00
2022-11-16T21:48:54.600Z,7.00
2022-11-16T21:51:24.404Z,7.10
2022-11-16T21:53:51.112Z,7.10
2022-11-16T21:56:21.548Z,7.10
2022-11-16T21:58:49.615Z,7.20
2022-11-16T22:01:16.524Z,7.30
2022-11-16T22:03:43.958Z,7.30
2022-11-16T22:06:33.518Z,7.30
2022-11-16T22:09:00.600Z,7.20
2022-11-16T22:11:27.314Z,7.20
2022-11-16T22:13:53.799Z,7.20
2022-11-16T22:16:22.329Z,7.20
2022-11-16T22:18:49.413Z,7.20
2022-11-16T22:21:15.866Z,7.20
2022-11-16T22:23:42.628Z,7.30
2022-11-16T22:26:15.145Z,7.20
2022-11-16T22:28:41.801Z,7.20
2022-11-16T22:31:14.409Z,7.10
2022-11-16T22:33:41.437Z,7.10
2022-11-16T22:36:10.104Z,7.20
2022-11-16T22:38:37.115Z,7.20
2022-11-16T22:41:04.159Z,7.20
2022-11-16T22:43:31.715Z,7.20
2022-11-16T22:46:00.451Z,7.20
2022-11-16T22:48:36.258Z,7.20
2022-11-16T22:51:21.988Z,7.20
2022-11-16T22:54:03.275Z,7.30
2022-11-16T22:56:32.137Z,7.20
2022-11-16T22:59:00.062Z,7.00
2022-11-16T23:01:26.517Z,7.10
2022-11-16T23:03:54.940Z,7.00
2022-11-16T23:06:21.408Z,7.10
2022-11-16T23:08:47.858Z,7.10
2022-11-16T23:11:36.426Z,7.10
2022-11-16T23:14:23.413Z,7.10
2022-11-16T23:16:50.050Z,7.20
2022-11-16T23:19:38.310Z,7.30
2022-11-16T23:22:24.799Z,7.30
2022-11-16T23:25:09.455Z,7.40
2022-11-16T23:30:35.050Z,7.40
2022-11-16T23:33:02.107Z,7.40
2022-11-16T23:35:28.577Z,7.30
2022-11-16T23:38:01.294Z,7.30
2022-11-16T23:40:33.024Z,7.30
2022-11-16T23:43:17.709Z,7.40
2022-11-16T23:45:45.441Z,7.50
2022-11-16T23:48:15.368Z,7.60
2022-11-16T23:50:43.298Z,7.70
2022-11-16T23:53:10.707Z,7.60
2022-11-16T23:55:39.368Z,7.60
2022-11-16T23:58:10.496Z,7.50
